createdAt,value
2018-08-11T00:00:30.196Z,21.00
2018-08-11T00:01:01.985Z,21.00
2018-08-11T00:01:33.756Z,21.00
2018-08-11T00:02:05.524Z,20.90
2018-08-11T00:02:37.309Z,20.90
2018-08-11T00:03:09.194Z,20.90
2018-08-11T00:03:40.986Z,20.90
2018-08-11T00:04:12.753Z,20.80
2018-08-11T00:04:44.536Z,20.80
2018-08-11T00:05:16.304Z,20.90
2018-08-11T00:05:48.075Z,20.80
2018-08-11T00:06:19.840Z,20.90
2018-08-11T00:06:51.617Z,20.90
2018-08-11T00:07:23.385Z,20.90
2018-08-11T00:07:55.152Z,20.90
2018-08-11T00:08:26.957Z,20.90
2018-08-11T00:08:58.752Z,20.80
2018-08-11T00:09:30.549Z,20.80
2018-08-11T00:10:02.318Z,20.80
2018-08-11T00:10:34.080Z,20.70
2018-08-11T00:11:05.852Z,20.70
2018-08-11T00:11:37.642Z,20.70
2018-08-11T00:12:09.420Z,20.70
2018-08-11T00:12:41.213Z,20.70
2018-08-11T00:13:13.004Z,20.70
2018-08-11T00:13:44.889Z,20.80
2018-08-11T00:14:16.647Z,20.80
2018-08-11T00:14:48.441Z,20.80
2018-08-11T00:15:20.223Z,20.70
2018-08-11T00:15:52.003Z,20.70
2018-08-11T00:16:23.780Z,20.70
2018-08-11T00:16:55.595Z,20.70
2018-08-11T00:17:27.524Z,20.80
2018-08-11T00:17:59.333Z,20.80
2018-08-11T00:18:31.094Z,20.70
2018-08-11T00:19:02.864Z,20.70
2018-08-11T00:19:34.632Z,20.80
2018-08-11T00:20:06.884Z,20.80
2018-08-11T00:20:38.656Z,20.80
2018-08-11T00:21:10.427Z,20.90
2018-08-11T00:21:42.200Z,20.90
2018-08-11T00:22:13.991Z,20.90
2018-08-11T00:22:45.763Z,21.00
2018-08-11T00:23:17.538Z,21.00
2018-08-11T00:23:49.297Z,21.00
2018-08-11T00:24:21.085Z,20.90
2018-08-11T00:24:52.869Z,20.90
2018-08-11T00:25:24.657Z,20.90
2018-08-11T00:25:56.424Z,21.00
2018-08-11T00:26:28.204Z,21.00
2018-08-11T00:26:59.978Z,21.00
2018-08-11T00:27:31.743Z,21.00
2018-08-11T00:28:03.517Z,21.00
2018-08-11T00:28:35.297Z,21.00
2018-08-11T00:29:07.109Z,21.00
2018-08-11T00:29:38.892Z,21.00
2018-08-11T00:30:10.662Z,20.90
2018-08-11T00:30:42.437Z,20.80
2018-08-11T00:31:14.210Z,20.70
2018-08-11T00:31:45.969Z,20.70
2018-08-11T00:32:17.753Z,20.60
2018-08-11T00:32:49.520Z,20.60
2018-08-11T00:33:21.296Z,20.60
2018-08-11T00:33:53.070Z,20.60
2018-08-11T00:34:24.956Z,20.60
2018-08-11T00:34:56.737Z,20.70
2018-08-11T00:35:28.527Z,20.70
2018-08-11T00:36:00.309Z,20.70
2018-08-11T00:36:32.168Z,20.70
2018-08-11T00:37:04.066Z,20.80
2018-08-11T00:37:35.831Z,20.80
2018-08-11T00:38:07.611Z,20.80
2018-08-11T00:38:39.376Z,20.80
2018-08-11T00:39:11.171Z,20.90
2018-08-11T00:39:42.940Z,20.90
2018-08-11T00:40:14.718Z,20.90
2018-08-11T00:40:46.499Z,21.00
2018-08-11T00:41:18.276Z,21.00
2018-08-11T00:41:50.050Z,21.10
2018-08-11T00:42:21.816Z,21.00
2018-08-11T00:42:53.594Z,21.10
2018-08-11T00:43:25.461Z,21.10
2018-08-11T00:43:57.234Z,21.10
2018-08-11T00:44:29.030Z,21.10
2018-08-11T00:45:00.803Z,21.10
2018-08-11T00:45:32.566Z,21.00
2018-08-11T00:46:04.349Z,21.00
2018-08-11T00:46:36.132Z,21.00
2018-08-11T00:47:07.905Z,21.00
2018-08-11T00:47:39.685Z,21.00
2018-08-11T00:48:11.460Z,21.00
2018-08-11T00:48:43.234Z,21.00
2018-08-11T00:49:15.017Z,21.00
2018-08-11T00:49:46.812Z,21.00
2018-08-11T00:50:18.623Z,21.00
2018-08-11T00:50:50.387Z,21.00
2018-08-11T00:51:22.157Z,21.00
2018-08-11T00:51:53.943Z,21.00
2018-08-11T00:52:25.716Z,21.00
2018-08-11T00:52:57.495Z,21.00
2018-08-11T00:53:29.289Z,21.00
2018-08-11T00:54:01.151Z,21.00
2018-08-11T00:54:32.957Z,21.00
2018-08-11T00:55:04.745Z,21.10
2018-08-11T00:55:36.551Z,21.10
2018-08-11T00:56:08.314Z,21.10
2018-08-11T00:56:40.077Z,21.10
2018-08-11T00:57:11.865Z,21.10
2018-08-11T00:57:43.647Z,21.10
2018-08-11T00:58:15.476Z,21.10
2018-08-11T00:58:47.261Z,21.10
2018-08-11T00:59:19.066Z,21.10
2018-08-11T00:59:50.828Z,21.10
2018-08-11T01:00:22.614Z,21.10
2018-08-11T01:00:54.374Z,21.00
2018-08-11T01:01:26.170Z,21.00
2018-08-11T01:01:57.963Z,21.10
2018-08-11T01:02:29.840Z,21.00
2018-08-11T01:03:01.701Z,21.00
2018-08-11T01:03:33.483Z,21.10
2018-08-11T01:04:05.312Z,21.10
2018-08-11T01:04:37.101Z,21.10
2018-08-11T01:05:08.874Z,21.10
2018-08-11T01:05:40.661Z,21.20
2018-08-11T01:06:12.443Z,21.20
2018-08-11T01:06:44.210Z,21.30
2018-08-11T01:07:15.991Z,21.20
2018-08-11T01:07:47.749Z,21.20
2018-08-11T01:08:19.521Z,21.20
2018-08-11T01:08:51.315Z,21.30
2018-08-11T01:09:23.084Z,21.30
2018-08-11T01:09:54.868Z,21.30
2018-08-11T01:10:26.635Z,21.30
2018-08-11T01:10:58.495Z,21.30
2018-08-11T01:11:30.385Z,21.30
2018-08-11T01:12:02.174Z,21.30
2018-08-11T01:12:33.962Z,21.40
2018-08-11T01:13:05.772Z,21.40
2018-08-11T01:13:37.526Z,21.30
2018-08-11T01:14:09.309Z,21.30
2018-08-11T01:14:41.086Z,21.30
2018-08-11T01:15:12.860Z,21.30
2018-08-11T01:15:44.629Z,21.30
2018-08-11T01:16:16.409Z,21.30
2018-08-11T01:16:48.188Z,21.30
2018-08-11T01:17:19.954Z,21.30
2018-08-11T01:17:51.734Z,21.40
2018-08-11T01:18:23.515Z,21.30
2018-08-11T01:18:55.287Z,21.30
2018-08-11T01:19:27.064Z,21.30
2018-08-11T01:19:58.839Z,21.30
2018-08-11T01:20:30.612Z,21.30
2018-08-11T01:21:02.464Z,21.30
2018-08-11T01:21:34.245Z,21.30
2018-08-11T01:22:06.017Z,21.30
2018-08-11T01:22:37.797Z,21.30
2018-08-11T01:23:09.581Z,21.30
2018-08-11T01:23:41.364Z,21.30
2018-08-11T01:24:13.141Z,21.30
2018-08-11T01:24:44.924Z,21.30
2018-08-11T01:25:16.731Z,21.30
2018-08-11T01:25:48.505Z,21.40
2018-08-11T01:26:20.280Z,21.30
2018-08-11T01:26:52.065Z,21.30
2018-08-11T01:27:23.824Z,21.30
2018-08-11T01:27:55.596Z,21.30
2018-08-11T01:28:27.491Z,21.30
2018-08-11T01:28:59.260Z,21.30
2018-08-11T01:29:31.037Z,21.30
2018-08-11T01:30:02.814Z,21.30
2018-08-11T01:30:34.584Z,21.30
2018-08-11T01:31:06.365Z,21.30
2018-08-11T01:31:38.141Z,21.30
2018-08-11T01:32:09.909Z,21.30
2018-08-11T01:32:41.680Z,21.30
2018-08-11T01:33:13.468Z,21.30
2018-08-11T01:33:45.261Z,21.30
2018-08-11T01:34:17.027Z,21.30
2018-08-11T01:34:48.807Z,21.30
2018-08-11T01:35:20.605Z,21.30
2018-08-11T01:35:52.380Z,21.30
2018-08-11T01:36:24.149Z,21.30
2018-08-11T01:36:55.931Z,21.30
2018-08-11T01:37:27.700Z,21.30
2018-08-11T01:37:59.481Z,21.30
2018-08-11T01:38:31.248Z,21.30
2018-08-11T01:39:03.021Z,21.30
2018-08-11T01:39:34.810Z,21.30
2018-08-11T01:40:06.586Z,21.30
2018-08-11T01:40:38.573Z,21.30
2018-08-11T01:41:10.359Z,21.30
2018-08-11T01:41:42.122Z,21.30
2018-08-11T01:42:13.901Z,21.30
2018-08-11T01:42:45.674Z,21.30
2018-08-11T01:43:17.448Z,21.30
2018-08-11T01:43:49.222Z,21.30
2018-08-11T01:44:21.068Z,21.30
2018-08-11T01:44:52.992Z,21.30
2018-08-11T01:45:24.776Z,21.30
2018-08-11T01:45:56.562Z,21.30
2018-08-11T01:46:28.347Z,21.30
2018-08-11T01:47:00.132Z,21.30
2018-08-11T01:47:31.916Z,21.30
2018-08-11T01:48:03.693Z,21.30
2018-08-11T01:48:35.472Z,21.30
2018-08-11T01:49:07.253Z,21.30
2018-08-11T01:49:39.031Z,21.30
2018-08-11T01:50:10.828Z,21.30
2018-08-11T01:50:42.604Z,21.30
2018-08-11T01:51:14.370Z,21.30
2018-08-11T01:51:46.173Z,21.30
2018-08-11T01:52:17.954Z,21.30
2018-08-11T01:52:49.732Z,21.30
2018-08-11T01:53:21.525Z,21.30
2018-08-11T01:53:53.301Z,21.30
2018-08-11T01:54:25.086Z,21.30
2018-08-11T01:54:56.857Z,21.30
2018-08-11T01:55:28.647Z,21.30
2018-08-11T01:56:00.425Z,21.30
2018-08-11T01:56:32.191Z,21.30
2018-08-11T01:57:03.966Z,21.30
2018-08-11T01:57:35.776Z,21.30
2018-08-11T01:58:07.736Z,21.30
2018-08-11T01:58:39.540Z,21.30
2018-08-11T01:59:11.305Z,21.30
2018-08-11T01:59:43.093Z,21.30
2018-08-11T02:00:14.893Z,21.30
2018-08-11T02:00:46.654Z,21.30
2018-08-11T02:01:18.432Z,21.20
2018-08-11T02:01:50.205Z,21.20
2018-08-11T02:02:21.982Z,21.10
2018-08-11T02:02:53.744Z,21.10
2018-08-11T02:03:25.875Z,21.10
2018-08-11T02:03:58.288Z,21.00
2018-08-11T02:04:30.097Z,21.00
2018-08-11T02:05:01.864Z,20.90
2018-08-11T02:05:33.714Z,20.90
2018-08-11T02:06:05.497Z,20.90
2018-08-11T02:06:37.260Z,20.90
2018-08-11T02:07:09.031Z,20.90
2018-08-11T02:07:40.803Z,20.90
2018-08-11T02:08:12.576Z,20.90
2018-08-11T02:08:44.369Z,21.00
2018-08-11T02:09:16.131Z,21.00
2018-08-11T02:09:47.915Z,20.90
2018-08-11T02:10:19.706Z,20.90
2018-08-11T02:10:51.471Z,20.80
2018-08-11T02:11:23.343Z,20.80
2018-08-11T02:11:55.241Z,20.80
2018-08-11T02:12:27.288Z,20.80
2018-08-11T02:12:59.047Z,20.80
2018-08-11T02:13:30.819Z,20.80
2018-08-11T02:14:02.597Z,20.70
2018-08-11T02:14:34.371Z,20.70
2018-08-11T02:15:06.140Z,20.70
2018-08-11T02:15:37.921Z,20.60
2018-08-11T02:16:09.707Z,20.60
2018-08-11T02:16:41.472Z,20.50
2018-08-11T02:17:13.245Z,20.50
2018-08-11T02:17:45.064Z,20.60
2018-08-11T02:18:16.908Z,20.60
2018-08-11T02:18:48.765Z,20.60
2018-08-11T02:19:20.528Z,20.70
2018-08-11T02:19:52.374Z,20.70
2018-08-11T02:20:24.297Z,20.70
2018-08-11T02:20:56.077Z,20.70
2018-08-11T02:21:27.991Z,20.70
2018-08-11T02:21:59.838Z,20.70
2018-08-11T02:22:31.612Z,20.70
2018-08-11T02:23:03.380Z,20.70
2018-08-11T02:23:35.163Z,20.70
2018-08-11T02:24:06.949Z,20.70
2018-08-11T02:24:38.737Z,20.80
2018-08-11T02:25:10.689Z,20.80
2018-08-11T02:25:42.555Z,20.70
2018-08-11T02:26:14.324Z,20.70
2018-08-11T02:26:46.105Z,20.70
2018-08-11T02:27:17.924Z,20.70
2018-08-11T02:27:49.692Z,20.70
2018-08-11T02:28:21.490Z,20.70
2018-08-11T02:28:53.536Z,20.70
2018-08-11T02:29:25.354Z,20.70
2018-08-11T02:29:57.317Z,20.70
2018-08-11T02:30:29.093Z,20.70
2018-08-11T02:31:00.885Z,20.70
2018-08-11T02:31:32.661Z,20.60
2018-08-11T02:32:04.445Z,20.70
2018-08-11T02:32:36.222Z,20.60
2018-08-11T02:33:08.002Z,20.70
2018-08-11T02:33:39.793Z,20.60
2018-08-11T02:34:11.623Z,20.60
2018-08-11T02:34:43.543Z,20.60
2018-08-11T02:35:15.341Z,20.60
2018-08-11T02:35:47.096Z,20.60
2018-08-11T02:36:18.897Z,20.60
2018-08-11T02:36:50.682Z,20.60
2018-08-11T02:37:22.471Z,20.60
2018-08-11T02:37:54.422Z,20.70
2018-08-11T02:38:26.197Z,20.70
2018-08-11T02:38:57.978Z,20.70
2018-08-11T02:39:29.752Z,20.70
2018-08-11T02:40:01.532Z,20.70
2018-08-11T02:40:33.300Z,20.70
2018-08-11T02:41:05.193Z,20.80
2018-08-11T02:41:36.994Z,20.80
2018-08-11T02:42:08.771Z,20.90
2018-08-11T02:42:40.546Z,20.90
2018-08-11T02:43:12.317Z,21.00
2018-08-11T02:43:44.095Z,20.90
2018-08-11T02:44:15.868Z,20.90
2018-08-11T02:44:47.640Z,20.90
2018-08-11T02:45:19.428Z,20.90
2018-08-11T02:45:51.194Z,20.90
2018-08-11T02:46:22.981Z,20.90
2018-08-11T02:46:54.758Z,21.00
2018-08-11T02:47:26.538Z,21.00
2018-08-11T02:47:58.338Z,21.00
2018-08-11T02:48:30.090Z,21.00
2018-08-11T02:49:01.872Z,21.00
2018-08-11T02:49:33.838Z,21.00
2018-08-11T02:50:05.614Z,21.00
2018-08-11T02:50:37.375Z,20.90
2018-08-11T02:51:09.166Z,20.90
2018-08-11T02:51:40.941Z,20.90
2018-08-11T02:52:12.720Z,20.80
2018-08-11T02:52:44.491Z,20.80
2018-08-11T02:53:16.339Z,20.80
2018-08-11T02:53:48.117Z,20.80
2018-08-11T02:54:19.885Z,20.80
2018-08-11T02:54:51.673Z,20.80
2018-08-11T02:55:23.471Z,20.80
2018-08-11T02:55:55.275Z,20.70
2018-08-11T02:56:27.100Z,20.70
2018-08-11T02:56:58.876Z,20.70
2018-08-11T02:57:30.695Z,20.70
2018-08-11T02:58:02.482Z,20.70
2018-08-11T02:58:34.250Z,20.70
2018-08-11T02:59:06.027Z,20.70
2018-08-11T02:59:37.797Z,20.70
2018-08-11T03:00:09.566Z,20.60
2018-08-11T03:00:41.357Z,20.60
2018-08-11T03:01:13.130Z,20.60
2018-08-11T03:01:44.910Z,20.60
2018-08-11T03:02:16.719Z,20.60
2018-08-11T03:02:48.490Z,20.50
2018-08-11T03:03:20.269Z,20.60
2018-08-11T03:03:52.042Z,20.50
2018-08-11T03:04:23.816Z,20.50
2018-08-11T03:04:55.597Z,20.50
2018-08-11T03:05:27.378Z,20.50
2018-08-11T03:05:59.160Z,20.50
2018-08-11T03:06:30.929Z,20.40
2018-08-11T03:07:02.695Z,20.40
2018-08-11T03:07:34.601Z,20.40
2018-08-11T03:08:06.559Z,20.40
2018-08-11T03:08:38.320Z,20.40
2018-08-11T03:09:10.110Z,20.40
2018-08-11T03:09:41.880Z,20.30
2018-08-11T03:10:13.653Z,20.30
2018-08-11T03:10:45.441Z,20.30
2018-08-11T03:11:17.212Z,20.30
2018-08-11T03:11:48.994Z,20.30
2018-08-11T03:12:20.881Z,20.30
2018-08-11T03:12:52.656Z,20.30
2018-08-11T03:13:24.429Z,20.30
2018-08-11T03:13:56.223Z,20.30
2018-08-11T03:14:27.995Z,20.20
2018-08-11T03:14:59.762Z,20.20
2018-08-11T03:15:31.521Z,20.20
2018-08-11T03:16:03.305Z,20.20
2018-08-11T03:16:35.068Z,20.20
2018-08-11T03:17:06.840Z,20.20
2018-08-11T03:17:38.617Z,20.20
2018-08-11T03:18:10.400Z,20.20
2018-08-11T03:18:42.177Z,20.20
2018-08-11T03:19:13.951Z,20.20
2018-08-11T03:19:45.809Z,20.20
2018-08-11T03:20:17.716Z,20.20
2018-08-11T03:20:49.483Z,20.20
2018-08-11T03:21:21.262Z,20.30
2018-08-11T03:21:53.059Z,20.30
2018-08-11T03:22:24.829Z,20.40
2018-08-11T03:22:56.616Z,20.40
2018-08-11T03:23:28.391Z,20.40
2018-08-11T03:24:00.151Z,20.40
2018-08-11T03:24:32.551Z,20.50
2018-08-11T03:25:04.596Z,20.50
2018-08-11T03:25:36.357Z,20.50
2018-08-11T03:26:08.153Z,20.50
2018-08-11T03:26:39.924Z,20.50
2018-08-11T03:27:11.697Z,20.40
2018-08-11T03:27:43.505Z,20.50
2018-08-11T03:28:15.278Z,20.40
2018-08-11T03:28:47.055Z,20.40
2018-08-11T03:29:18.819Z,20.50
2018-08-11T03:29:50.710Z,20.50
2018-08-11T03:30:22.478Z,20.40
2018-08-11T03:30:54.244Z,20.40
2018-08-11T03:31:26.031Z,20.40
2018-08-11T03:31:57.828Z,20.40
2018-08-11T03:32:29.592Z,20.40
2018-08-11T03:33:01.373Z,20.40
2018-08-11T03:33:33.146Z,20.30
2018-08-11T03:34:04.941Z,20.30
2018-08-11T03:34:36.709Z,20.30
2018-08-11T03:35:08.480Z,20.30
2018-08-11T03:35:40.249Z,20.30
2018-08-11T03:36:12.034Z,20.40
2018-08-11T03:36:43.834Z,20.40
2018-08-11T03:37:15.609Z,20.40
2018-08-11T03:37:47.372Z,20.40
2018-08-11T03:38:19.152Z,20.40
2018-08-11T03:38:50.934Z,20.50
2018-08-11T03:39:22.706Z,20.50
2018-08-11T03:39:54.480Z,20.50
2018-08-11T03:40:26.260Z,20.50
2018-08-11T03:40:58.044Z,20.50
2018-08-11T03:41:29.825Z,20.40
2018-08-11T03:42:01.596Z,20.40
2018-08-11T03:42:33.388Z,20.40
2018-08-11T03:43:05.161Z,20.40
2018-08-11T03:43:36.952Z,20.40
2018-08-11T03:44:08.823Z,20.30
2018-08-11T03:44:40.591Z,20.30
2018-08-11T03:45:12.364Z,20.30
2018-08-11T03:45:44.153Z,20.30
2018-08-11T03:46:15.928Z,20.30
2018-08-11T03:46:47.728Z,20.30
2018-08-11T03:47:19.494Z,20.30
2018-08-11T03:47:51.272Z,20.20
2018-08-11T03:48:23.041Z,20.20
2018-08-11T03:48:54.827Z,20.20
2018-08-11T03:49:26.599Z,20.30
2018-08-11T03:49:58.368Z,20.30
2018-08-11T03:50:30.264Z,20.30
2018-08-11T03:51:02.032Z,20.30
2018-08-11T03:51:33.873Z,20.20
2018-08-11T03:52:05.659Z,20.20
2018-08-11T03:52:37.495Z,20.20
2018-08-11T03:53:09.423Z,20.30
2018-08-11T03:53:41.199Z,20.30
2018-08-11T03:54:12.989Z,20.30
2018-08-11T03:54:44.767Z,20.30
2018-08-11T03:55:16.537Z,20.30
2018-08-11T03:55:48.307Z,20.30
2018-08-11T03:56:20.098Z,20.30
2018-08-11T03:56:51.889Z,20.40
2018-08-11T03:57:23.664Z,20.40
2018-08-11T03:57:55.446Z,20.50
2018-08-11T03:58:27.229Z,20.50
2018-08-11T03:58:58.999Z,20.50
2018-08-11T03:59:30.813Z,20.50
2018-08-11T04:00:02.591Z,20.50
2018-08-11T04:00:34.382Z,20.50
2018-08-11T04:01:06.163Z,20.40
2018-08-11T04:01:37.951Z,20.40
2018-08-11T04:02:09.718Z,20.40
2018-08-11T04:02:41.494Z,20.50
2018-08-11T04:03:13.276Z,20.50
2018-08-11T04:03:45.047Z,20.50
2018-08-11T04:04:16.843Z,20.50
2018-08-11T04:04:48.612Z,20.50
2018-08-11T04:05:20.399Z,20.50
2018-08-11T04:05:52.169Z,20.50
2018-08-11T04:06:23.960Z,20.50
2018-08-11T04:06:55.751Z,20.50
2018-08-11T04:07:27.531Z,20.50
2018-08-11T04:07:59.306Z,20.40
2018-08-11T04:08:31.093Z,20.40
2018-08-11T04:09:02.860Z,20.40
2018-08-11T04:09:34.645Z,20.40
2018-08-11T04:10:06.420Z,20.30
2018-08-11T04:10:38.193Z,20.30
2018-08-11T04:11:09.977Z,20.30
2018-08-11T04:11:41.742Z,20.30
2018-08-11T04:12:13.520Z,20.30
2018-08-11T04:12:45.293Z,20.30
2018-08-11T04:13:17.069Z,20.30
2018-08-11T04:13:48.849Z,20.20
2018-08-11T04:14:20.622Z,20.20
2018-08-11T04:14:52.400Z,20.20
2018-08-11T04:15:24.191Z,20.20
2018-08-11T04:15:55.964Z,20.20
2018-08-11T04:16:27.743Z,20.20
2018-08-11T04:16:59.503Z,20.20
2018-08-11T04:17:31.292Z,20.20
2018-08-11T04:18:03.067Z,20.30
2018-08-11T04:18:34.842Z,20.30
2018-08-11T04:19:06.616Z,20.30
2018-08-11T04:19:38.405Z,20.30
2018-08-11T04:20:10.178Z,20.30
2018-08-11T04:20:42.157Z,20.30
2018-08-11T04:21:13.941Z,20.30
2018-08-11T04:21:45.840Z,20.30
2018-08-11T04:22:17.791Z,20.40
2018-08-11T04:22:49.554Z,20.40
2018-08-11T04:23:21.373Z,20.40
2018-08-11T04:23:53.145Z,20.40
2018-08-11T04:24:24.932Z,20.40
2018-08-11T04:24:56.705Z,20.40
2018-08-11T04:25:28.502Z,20.30
2018-08-11T04:26:00.258Z,20.30
2018-08-11T04:26:32.089Z,20.30
2018-08-11T04:27:03.875Z,20.30
2018-08-11T04:27:35.661Z,20.30
2018-08-11T04:28:07.449Z,20.40
2018-08-11T04:28:39.242Z,20.40
2018-08-11T04:29:11.043Z,20.40
2018-08-11T04:29:42.803Z,20.40
2018-08-11T04:30:14.580Z,20.40
2018-08-11T04:30:46.365Z,20.40
2018-08-11T04:31:18.132Z,20.40
2018-08-11T04:31:49.932Z,20.40
2018-08-11T04:32:21.733Z,20.40
2018-08-11T04:32:53.504Z,20.40
2018-08-11T04:33:25.297Z,20.50
2018-08-11T04:33:57.073Z,20.50
2018-08-11T04:34:28.839Z,20.50
2018-08-11T04:35:00.605Z,20.50
2018-08-11T04:35:32.416Z,20.50
2018-08-11T04:36:04.345Z,20.50
2018-08-11T04:36:36.117Z,20.40
2018-08-11T04:37:07.892Z,20.40
2018-08-11T04:37:39.673Z,20.40
2018-08-11T04:38:11.452Z,20.40
2018-08-11T04:38:43.300Z,20.40
2018-08-11T04:39:15.151Z,20.30
2018-08-11T04:39:46.926Z,20.40
2018-08-11T04:40:18.711Z,20.40
2018-08-11T04:40:50.487Z,20.30
2018-08-11T04:41:22.272Z,20.30
2018-08-11T04:41:54.103Z,20.30
2018-08-11T04:42:26.052Z,20.30
2018-08-11T04:42:57.825Z,20.30
2018-08-11T04:43:29.617Z,20.30
2018-08-11T04:44:01.396Z,20.30
2018-08-11T04:44:33.162Z,20.30
2018-08-11T04:45:04.936Z,20.40
2018-08-11T04:45:36.704Z,20.40
2018-08-11T04:46:08.511Z,20.40
2018-08-11T04:46:40.279Z,20.40
2018-08-11T04:47:12.044Z,20.40
2018-08-11T04:47:43.851Z,20.40
2018-08-11T04:48:15.612Z,20.40
2018-08-11T04:48:47.412Z,20.40
2018-08-11T04:49:19.188Z,20.30
2018-08-11T04:49:50.968Z,20.40
2018-08-11T04:50:22.753Z,20.40
2018-08-11T04:50:54.532Z,20.40
2018-08-11T04:51:26.306Z,20.40
2018-08-11T04:51:58.074Z,20.40
2018-08-11T04:52:29.892Z,20.30
2018-08-11T04:53:01.665Z,20.30
2018-08-11T04:53:33.431Z,20.30
2018-08-11T04:54:05.297Z,20.30
2018-08-11T04:54:37.069Z,20.40
2018-08-11T04:55:08.888Z,20.40
2018-08-11T04:55:40.667Z,20.50
2018-08-11T04:56:12.429Z,20.50
2018-08-11T04:56:44.219Z,20.50
2018-08-11T04:57:15.993Z,20.50
2018-08-11T04:57:47.789Z,20.60
2018-08-11T04:58:19.570Z,20.60
2018-08-11T04:58:51.354Z,20.60
2018-08-11T04:59:23.140Z,20.60
2018-08-11T04:59:54.929Z,20.60
2018-08-11T05:00:26.711Z,20.60
2018-08-11T05:00:58.604Z,20.60
2018-08-11T05:01:30.390Z,20.60
2018-08-11T05:02:02.167Z,20.70
2018-08-11T05:02:33.982Z,20.60
2018-08-11T05:03:05.781Z,20.60
2018-08-11T05:03:37.553Z,20.60
2018-08-11T05:04:09.351Z,20.50
2018-08-11T05:04:41.130Z,20.50
2018-08-11T05:05:12.905Z,20.50
2018-08-11T05:05:44.681Z,20.50
2018-08-11T05:06:16.457Z,20.50
2018-08-11T05:06:48.254Z,20.50
2018-08-11T05:07:20.033Z,20.50
2018-08-11T05:07:51.808Z,20.60
2018-08-11T05:08:23.577Z,20.60
2018-08-11T05:08:55.350Z,20.60
2018-08-11T05:09:27.144Z,20.60
2018-08-11T05:09:58.988Z,20.60
2018-08-11T05:10:30.763Z,20.60
2018-08-11T05:11:02.539Z,20.60
2018-08-11T05:11:34.323Z,20.60
2018-08-11T05:12:06.093Z,20.60
2018-08-11T05:12:37.884Z,20.60
2018-08-11T05:13:10.820Z,20.60
2018-08-11T05:13:42.836Z,20.60
2018-08-11T05:14:14.617Z,20.60
2018-08-11T05:14:46.390Z,20.60
2018-08-11T05:15:18.179Z,20.60
2018-08-11T05:15:49.943Z,20.60
2018-08-11T05:16:21.718Z,20.60
2018-08-11T05:16:53.510Z,20.60
2018-08-11T05:17:25.280Z,20.50
2018-08-11T05:17:57.203Z,20.50
2018-08-11T05:18:28.976Z,20.50
2018-08-11T05:19:00.816Z,20.60
2018-08-11T05:19:32.596Z,20.50
2018-08-11T05:20:04.418Z,20.50
2018-08-11T05:20:36.181Z,20.50
2018-08-11T05:21:07.959Z,20.50
2018-08-11T05:21:39.719Z,20.50
2018-08-11T05:22:11.492Z,20.50
2018-08-11T05:22:43.317Z,20.50
2018-08-11T05:23:15.084Z,20.50
2018-08-11T05:23:46.889Z,20.50
2018-08-11T05:24:18.719Z,20.50
2018-08-11T05:24:50.496Z,20.60
2018-08-11T05:25:22.269Z,20.60
2018-08-11T05:25:54.036Z,20.60
2018-08-11T05:26:25.849Z,20.60
2018-08-11T05:26:58.131Z,20.70
2018-08-11T05:27:29.914Z,20.70
2018-08-11T05:28:01.684Z,20.70
2018-08-11T05:28:33.472Z,20.70
2018-08-11T05:29:05.271Z,20.60
2018-08-11T05:29:37.081Z,20.60
2018-08-11T05:30:08.898Z,20.60
2018-08-11T05:30:40.677Z,20.60
2018-08-11T05:31:12.452Z,20.50
2018-08-11T05:31:44.238Z,20.60
2018-08-11T05:32:16.050Z,20.60
2018-08-11T05:32:47.868Z,20.60
2018-08-11T05:33:19.803Z,20.60
2018-08-11T05:33:51.686Z,20.50
2018-08-11T05:34:23.497Z,20.60
2018-08-11T05:34:55.285Z,20.60
2018-08-11T05:35:27.058Z,20.60
2018-08-11T05:35:58.846Z,20.60
2018-08-11T05:36:31.331Z,20.60
2018-08-11T05:37:03.388Z,20.60
2018-08-11T05:37:35.175Z,20.60
2018-08-11T05:38:06.970Z,20.60
2018-08-11T05:38:39.068Z,20.60
2018-08-11T05:39:10.879Z,20.60
2018-08-11T05:39:42.654Z,20.60
2018-08-11T05:40:14.428Z,20.60
2018-08-11T05:40:46.201Z,20.60
2018-08-11T05:41:17.976Z,20.60
2018-08-11T05:41:49.803Z,20.60
2018-08-11T05:42:21.602Z,20.60
2018-08-11T05:42:53.393Z,20.60
2018-08-11T05:43:25.241Z,20.60
2018-08-11T05:43:57.008Z,20.60
2018-08-11T05:44:28.917Z,20.70
2018-08-11T05:45:00.703Z,20.70
2018-08-11T05:45:32.462Z,20.70
2018-08-11T05:46:04.235Z,20.60
2018-08-11T05:46:36.008Z,20.60
2018-08-11T05:47:07.861Z,20.60
2018-08-11T05:47:39.641Z,20.60
2018-08-11T05:48:11.440Z,20.60
2018-08-11T05:48:43.226Z,20.60
2018-08-11T05:49:15.004Z,20.60
2018-08-11T05:49:46.953Z,20.60
2018-08-11T05:50:18.774Z,20.50
2018-08-11T05:50:50.562Z,20.50
2018-08-11T05:51:22.450Z,20.50
2018-08-11T05:51:54.242Z,20.50
2018-08-11T05:52:26.020Z,20.40
2018-08-11T05:52:57.823Z,20.40
2018-08-11T05:53:29.596Z,20.40
2018-08-11T05:54:01.406Z,20.40
2018-08-11T05:54:33.169Z,20.40
2018-08-11T05:55:04.967Z,20.30
2018-08-11T05:55:36.933Z,20.30
2018-08-11T05:56:08.705Z,20.30
2018-08-11T05:56:40.482Z,20.30
2018-08-11T05:57:12.309Z,20.30
2018-08-11T05:57:44.065Z,20.30
2018-08-11T05:58:15.887Z,20.30
2018-08-11T05:58:47.685Z,20.30
2018-08-11T05:59:19.448Z,20.40
2018-08-11T05:59:51.255Z,20.30
2018-08-11T06:00:23.099Z,20.40
2018-08-11T06:00:54.893Z,20.30
2018-08-11T06:01:26.685Z,20.30
2018-08-11T06:01:58.507Z,20.30
2018-08-11T06:02:30.591Z,20.30
2018-08-11T06:03:02.887Z,20.30
2018-08-11T06:03:34.649Z,20.30
2018-08-11T06:04:06.526Z,20.30
2018-08-11T06:04:38.469Z,20.30
2018-08-11T06:05:10.261Z,20.30
2018-08-11T06:05:42.029Z,20.40
2018-08-11T06:06:13.807Z,20.40
2018-08-11T06:06:45.576Z,20.40
2018-08-11T06:07:17.366Z,20.40
2018-08-11T06:07:49.120Z,20.40
2018-08-11T06:08:20.913Z,20.40
2018-08-11T06:08:53.623Z,20.30
2018-08-11T06:09:25.437Z,20.40
2018-08-11T06:09:57.249Z,20.30
2018-08-11T06:10:29.027Z,20.30
2018-08-11T06:11:01.011Z,20.40
2018-08-11T06:11:32.786Z,20.40
2018-08-11T06:12:04.578Z,20.30
2018-08-11T06:12:36.345Z,20.30
2018-08-11T06:13:08.155Z,20.30
2018-08-11T06:13:39.928Z,20.30
2018-08-11T06:14:11.734Z,20.30
2018-08-11T06:14:43.516Z,20.30
2018-08-11T06:15:15.304Z,20.40
2018-08-11T06:15:47.089Z,20.40
2018-08-11T06:16:18.884Z,20.40
2018-08-11T06:16:50.685Z,20.50
2018-08-11T06:17:22.487Z,20.50
2018-08-11T06:17:54.253Z,20.50
2018-08-11T06:18:26.108Z,20.40
2018-08-11T06:18:57.949Z,20.40
2018-08-11T06:19:29.727Z,20.40
2018-08-11T06:20:01.524Z,20.40
2018-08-11T06:20:33.292Z,20.40
2018-08-11T06:21:05.425Z,20.40
2018-08-11T06:21:37.470Z,20.40
2018-08-11T06:22:09.757Z,20.50
2018-08-11T06:22:42.134Z,20.50
2018-08-11T06:23:13.929Z,20.50
2018-08-11T06:23:45.895Z,20.50
2018-08-11T06:24:17.736Z,20.50
2018-08-11T06:24:49.511Z,20.50
2018-08-11T06:25:21.392Z,20.50
2018-08-11T06:25:53.213Z,20.50
2018-08-11T06:26:24.969Z,20.50
2018-08-11T06:26:56.761Z,20.50
2018-08-11T06:27:28.534Z,20.50
2018-08-11T06:28:00.317Z,20.40
2018-08-11T06:28:32.094Z,20.40
2018-08-11T06:29:03.875Z,20.30
2018-08-11T06:29:35.687Z,20.30
2018-08-11T06:30:07.630Z,20.30
2018-08-11T06:30:39.495Z,20.30
2018-08-11T06:31:11.326Z,20.30
2018-08-11T06:31:43.383Z,20.30
2018-08-11T06:32:15.351Z,20.40
2018-08-11T06:32:47.331Z,20.30
2018-08-11T06:33:19.151Z,20.40
2018-08-11T06:33:50.920Z,20.40
2018-08-11T06:34:22.686Z,20.40
2018-08-11T06:34:54.483Z,20.40
2018-08-11T06:35:26.232Z,20.40
2018-08-11T06:35:58.045Z,20.40
2018-08-11T06:36:29.817Z,20.40
2018-08-11T06:37:01.585Z,20.40
2018-08-11T06:37:33.373Z,20.40
2018-08-11T06:38:05.138Z,20.40
2018-08-11T06:38:36.925Z,20.40
2018-08-11T06:39:08.717Z,20.40
2018-08-11T06:39:40.520Z,20.40
2018-08-11T06:40:12.463Z,20.40
2018-08-11T06:40:45.752Z,20.40
2018-08-11T06:41:17.656Z,20.40
2018-08-11T06:41:49.431Z,20.40
2018-08-11T06:42:21.226Z,20.40
2018-08-11T06:42:53.005Z,20.40
2018-08-11T06:43:24.777Z,20.40
2018-08-11T06:43:56.590Z,20.50
2018-08-11T06:44:28.363Z,20.50
2018-08-11T06:45:00.141Z,20.50
2018-08-11T06:45:31.930Z,20.50
2018-08-11T06:46:03.729Z,20.50
2018-08-11T06:46:35.509Z,20.50
2018-08-11T06:47:07.352Z,20.50
2018-08-11T06:47:39.310Z,20.50
2018-08-11T06:48:11.081Z,20.50
2018-08-11T06:48:42.853Z,20.50
2018-08-11T06:49:14.643Z,20.50
2018-08-11T06:49:46.452Z,20.50